sensor_id;sensor_type;location;lat;lon;timestamp;pressure;altitude;pressure_sealevel;temperature;humidity
31121;BME280;17770;45.966;13.632;2023-07-30T00:01:28;100144.72;;;29.44;50.10
31121;BME280;17770;45.966;13.632;2023-07-30T00:03:55;100149.19;;;29.43;50.23
31121;BME280;17770;45.966;13.632;2023-07-30T00:06:20;100157.00;;;29.45;50.24
31121;BME280;17770;45.966;13.632;2023-07-30T00:08:46;100162.81;;;29.40;50.15
31121;BME280;17770;45.966;13.632;2023-07-30T00:11:12;100162.66;;;29.42;50.03
31121;BME280;17770;45.966;13.632;2023-07-30T00:13:38;100163.16;;;29.37;49.78
31121;BME280;17770;45.966;13.632;2023-07-30T00:16:04;100161.50;;;29.36;49.75
31121;BME280;17770;45.966;13.632;2023-07-30T00:18:29;100177.44;;;29.36;50.16
31121;BME280;17770;45.966;13.632;2023-07-30T00:20:55;100173.94;;;29.35;49.91
31121;BME280;17770;45.966;13.632;2023-07-30T00:23:21;100174.97;;;29.34;50.35
31121;BME280;17770;45.966;13.632;2023-07-30T00:25:47;100169.66;;;29.34;49.90
31121;BME280;17770;45.966;13.632;2023-07-30T00:28:13;100190.06;;;29.34;50.18
31121;BME280;17770;45.966;13.632;2023-07-30T00:30:39;100182.09;;;29.34;50.13
31121;BME280;17770;45.966;13.632;2023-07-30T00:33:05;100178.31;;;29.28;50.13
31121;BME280;17770;45.966;13.632;2023-07-30T00:35:31;100184.13;;;29.32;50.01
31121;BME280;17770;45.966;13.632;2023-07-30T00:37:56;100175.47;;;29.30;50.24
31121;BME280;17770;45.966;13.632;2023-07-30T00:40:23;100161.69;;;29.26;49.93
31121;BME280;17770;45.966;13.632;2023-07-30T00:42:48;100161.03;;;29.24;50.02
31121;BME280;17770;45.966;13.632;2023-07-30T00:45:14;100155.88;;;29.23;50.34
31121;BME280;17770;45.966;13.632;2023-07-30T00:47:40;100154.56;;;29.19;50.35
31121;BME280;17770;45.966;13.632;2023-07-30T00:50:07;100161.03;;;29.16;50.64
31121;BME280;17770;45.966;13.632;2023-07-30T00:52:33;100152.25;;;29.16;50.71
31121;BME280;17770;45.966;13.632;2023-07-30T00:55:03;100147.09;;;29.14;50.76
31121;BME280;17770;45.966;13.632;2023-07-30T00:57:29;100149.94;;;29.13;50.53
31121;BME280;17770;45.966;13.632;2023-07-30T00:59:56;100157.91;;;29.13;50.56
31121;BME280;17770;45.966;13.632;2023-07-30T01:02:22;100137.16;;;29.08;50.72
31121;BME280;17770;45.966;13.632;2023-07-30T01:04:49;100139.94;;;29.07;50.79
31121;BME280;17770;45.966;13.632;2023-07-30T01:07:15;100134.50;;;29.08;50.74
31121;BME280;17770;45.966;13.632;2023-07-30T01:09:41;100120.50;;;29.06;50.70
31121;BME280;17770;45.966;13.632;2023-07-30T01:12:07;100112.88;;;29.03;50.90
31121;BME280;17770;45.966;13.632;2023-07-30T01:14:34;100113.38;;;29.07;50.81
31121;BME280;17770;45.966;13.632;2023-07-30T01:17:04;100102.09;;;29.05;50.90
31121;BME280;17770;45.966;13.632;2023-07-30T01:19:30;100097.28;;;29.00;50.81
31121;BME280;17770;45.966;13.632;2023-07-30T01:21:56;100101.78;;;29.00;50.85
31121;BME280;17770;45.966;13.632;2023-07-30T01:24:22;100096.63;;;28.98;50.90
31121;BME280;17770;45.966;13.632;2023-07-30T01:26:49;100097.28;;;29.00;50.51
31121;BME280;17770;45.966;13.632;2023-07-30T01:29:21;100103.41;;;29.01;50.41
31121;BME280;17770;45.966;13.632;2023-07-30T01:31:49;100096.81;;;28.97;50.36
31121;BME280;17770;45.966;13.632;2023-07-30T01:34:17;100094.94;;;28.97;50.68
31121;BME280;17770;45.966;13.632;2023-07-30T01:36:43;100097.78;;;28.96;50.54
31121;BME280;17770;45.966;13.632;2023-07-30T01:39:09;100114.72;;;28.95;50.65
31121;BME280;17770;45.966;13.632;2023-07-30T01:41:35;100132.66;;;28.93;50.52
31121;BME280;17770;45.966;13.632;2023-07-30T01:44:01;100135.81;;;28.88;50.81
31121;BME280;17770;45.966;13.632;2023-07-30T01:46:28;100133.00;;;28.90;50.67
31121;BME280;17770;45.966;13.632;2023-07-30T01:48:54;100136.47;;;28.90;50.53
31121;BME280;17770;45.966;13.632;2023-07-30T01:51:20;100137.28;;;28.91;50.71
31121;BME280;17770;45.966;13.632;2023-07-30T01:53:45;100122.38;;;28.90;50.55
31121;BME280;17770;45.966;13.632;2023-07-30T01:56:11;100126.19;;;28.87;50.64
31121;BME280;17770;45.966;13.632;2023-07-30T01:58:37;100123.53;;;28.87;50.57
31121;BME280;17770;45.966;13.632;2023-07-30T02:01:03;100101.97;;;28.82;51.00
31121;BME280;17770;45.966;13.632;2023-07-30T02:03:29;100087.03;;;28.81;51.12
31121;BME280;17770;45.966;13.632;2023-07-30T02:05:55;100077.41;;;28.80;50.92
31121;BME280;17770;45.966;13.632;2023-07-30T02:08:20;100047.53;;;28.78;50.99
31121;BME280;17770;45.966;13.632;2023-07-30T02:10:54;100013.34;;;28.75;51.11
31121;BME280;17770;45.966;13.632;2023-07-30T02:13:20;100015.34;;;28.73;50.79
31121;BME280;17770;45.966;13.632;2023-07-30T02:15:46;100012.50;;;28.75;50.93
31121;BME280;17770;45.966;13.632;2023-07-30T02:18:11;100048.03;;;28.74;51.08
31121;BME280;17770;45.966;13.632;2023-07-30T02:20:37;100080.06;;;28.72;50.91
31121;BME280;17770;45.966;13.632;2023-07-30T02:23:03;100136.97;;;28.70;50.99
31121;BME280;17770;45.966;13.632;2023-07-30T02:25:29;100172.16;;;28.72;50.60
31121;BME280;17770;45.966;13.632;2023-07-30T02:27:55;100206.69;;;28.72;50.70
31121;BME280;17770;45.966;13.632;2023-07-30T02:30:21;100237.72;;;28.71;50.66
31121;BME280;17770;45.966;13.632;2023-07-30T02:32:47;100269.72;;;28.70;50.77
31121;BME280;17770;45.966;13.632;2023-07-30T02:35:14;100300.91;;;28.68;50.69
31121;BME280;17770;45.966;13.632;2023-07-30T02:37:40;100318.03;;;28.65;50.77
31121;BME280;17770;45.966;13.632;2023-07-30T02:40:06;100330.44;;;28.65;50.46
31121;BME280;17770;45.966;13.632;2023-07-30T02:42:32;100326.66;;;28.67;50.61
31121;BME280;17770;45.966;13.632;2023-07-30T02:44:58;100308.25;;;28.66;50.56
31121;BME280;17770;45.966;13.632;2023-07-30T02:47:23;100273.22;;;28.62;50.66
31121;BME280;17770;45.966;13.632;2023-07-30T02:49:50;100259.28;;;28.60;50.72
31121;BME280;17770;45.966;13.632;2023-07-30T02:52:16;100247.81;;;28.60;50.59
31121;BME280;17770;45.966;13.632;2023-07-30T02:54:42;100226.91;;;28.57;50.78
31121;BME280;17770;45.966;13.632;2023-07-30T02:57:07;100229.72;;;28.55;50.92
31121;BME280;17770;45.966;13.632;2023-07-30T02:59:33;100227.75;;;28.57;50.52
31121;BME280;17770;45.966;13.632;2023-07-30T03:02:02;100216.44;;;28.55;50.44
31121;BME280;17770;45.966;13.632;2023-07-30T03:04:28;100225.09;;;28.57;50.69
31121;BME280;17770;45.966;13.632;2023-07-30T03:06:53;100213.78;;;28.55;50.60
31121;BME280;17770;45.966;13.632;2023-07-30T03:09:19;100210.31;;;28.55;50.42
31121;BME280;17770;45.966;13.632;2023-07-30T03:11:45;100205.16;;;28.53;50.64
31121;BME280;17770;45.966;13.632;2023-07-30T03:14:11;100195.72;;;28.51;50.63
31121;BME280;17770;45.966;13.632;2023-07-30T03:16:37;100185.25;;;28.49;50.64
31121;BME280;17770;45.966;13.632;2023-07-30T03:19:03;100171.47;;;28.46;50.55
31121;BME280;17770;45.966;13.632;2023-07-30T03:21:29;100159.16;;;28.45;50.46
31121;BME280;17770;45.966;13.632;2023-07-30T03:23:54;100154.53;;;28.47;50.35
31121;BME280;17770;45.966;13.632;2023-07-30T03:26:20;100139.94;;;28.43;50.32
31121;BME280;17770;45.966;13.632;2023-07-30T03:28:46;100123.34;;;28.41;50.48
31121;BME280;17770;45.966;13.632;2023-07-30T03:31:12;100120.69;;;28.41;50.16
31121;BME280;17770;45.966;13.632;2023-07-30T03:33:38;100111.88;;;28.40;50.23
31121;BME280;17770;45.966;13.632;2023-07-30T03:36:05;100120.69;;;28.41;49.92
31121;BME280;17770;45.966;13.632;2023-07-30T03:38:30;100127.97;;;28.39;49.95
31121;BME280;17770;45.966;13.632;2023-07-30T03:40:56;100132.78;;;28.35;50.20
31121;BME280;17770;45.966;13.632;2023-07-30T03:43:22;100128.47;;;28.34;50.23
31121;BME280;17770;45.966;13.632;2023-07-30T03:45:48;100109.06;;;28.34;50.11
31121;BME280;17770;45.966;13.632;2023-07-30T03:48:14;100100.59;;;28.30;49.88
31121;BME280;17770;45.966;13.632;2023-07-30T03:50:40;100095.47;;;28.29;49.91
31121;BME280;17770;45.966;13.632;2023-07-30T03:53:06;100079.03;;;28.25;50.30
31121;BME280;17770;45.966;13.632;2023-07-30T03:55:31;100057.00;;;28.25;50.34
31121;BME280;17770;45.966;13.632;2023-07-30T03:57:57;100057.97;;;28.24;49.92
31121;BME280;17770;45.966;13.632;2023-07-30T04:00:24;100063.47;;;28.22;49.95
31121;BME280;17770;45.966;13.632;2023-07-30T04:02:49;100065.28;;;28.22;49.99
31121;BME280;17770;45.966;13.632;2023-07-30T04:05:15;100051.03;;;28.23;49.95
31121;BME280;17770;45.966;13.632;2023-07-30T04:07:41;100048.53;;;28.21;49.95
31121;BME280;17770;45.966;13.632;2023-07-30T04:10:07;100036.25;;;28.20;50.17
31121;BME280;17770;45.966;13.632;2023-07-30T04:12:33;100019.66;;;28.18;50.00
31121;BME280;17770;45.966;13.632;2023-07-30T04:14:59;99997.66;;;28.17;49.71
31121;BME280;17770;45.966;13.632;2023-07-30T04:17:27;99994.31;;;28.15;49.71
31121;BME280;17770;45.966;13.632;2023-07-30T04:19:53;99995.97;;;28.16;49.94
31121;BME280;17770;45.966;13.632;2023-07-30T04:22:19;99994.31;;;28.15;50.17
31121;BME280;17770;45.966;13.632;2023-07-30T04:24:44;100012.06;;;28.15;49.87
31121;BME280;17770;45.966;13.632;2023-07-30T04:27:10;100011.41;;;28.13;49.89
31121;BME280;17770;45.966;13.632;2023-07-30T04:29:36;100002.44;;;28.14;49.75
31121;BME280;17770;45.966;13.632;2023-07-30T04:32:02;99992.97;;;28.11;49.91
31121;BME280;17770;45.966;13.632;2023-07-30T04:34:28;99977.22;;;28.10;50.17
31121;BME280;17770;45.966;13.632;2023-07-30T04:36:54;99969.63;;;28.07;50.16
31121;BME280;17770;45.966;13.632;2023-07-30T04:39:21;99956.53;;;28.05;50.15
31121;BME280;17770;45.966;13.632;2023-07-30T04:41:47;99968.63;;;28.08;50.18
31121;BME280;17770;45.966;13.632;2023-07-30T04:44:13;99967.63;;;28.09;50.23
31121;BME280;17770;45.966;13.632;2023-07-30T04:46:39;99963.34;;;28.08;49.94
31121;BME280;17770;45.966;13.632;2023-07-30T04:49:05;99963.47;;;28.06;50.09
31121;BME280;17770;45.966;13.632;2023-07-30T04:51:31;99966.97;;;28.07;49.88
31121;BME280;17770;45.966;13.632;2023-07-30T04:53:57;99972.59;;;28.04;49.78
31121;BME280;17770;45.966;13.632;2023-07-30T04:56:23;99984.22;;;28.03;50.41
31121;BME280;17770;45.966;13.632;2023-07-30T04:58:50;99998.47;;;28.02;49.98
31121;BME280;17770;45.966;13.632;2023-07-30T05:01:16;100016.03;;;28.03;49.89
31121;BME280;17770;45.966;13.632;2023-07-30T05:03:42;100016.03;;;28.03;49.98
31121;BME280;17770;45.966;13.632;2023-07-30T05:06:08;100033.94;;;28.01;50.15
31121;BME280;17770;45.966;13.632;2023-07-30T05:08:34;100044.53;;;28.01;50.07
31121;BME280;17770;45.966;13.632;2023-07-30T05:10:59;100058.63;;;28.01;50.15
31121;BME280;17770;45.966;13.632;2023-07-30T05:13:25;100071.06;;;28.01;49.95
31121;BME280;17770;45.966;13.632;2023-07-30T05:15:51;100068.59;;;27.99;50.00
31121;BME280;17770;45.966;13.632;2023-07-30T05:18:17;100074.84;;;27.98;50.17
31121;BME280;17770;45.966;13.632;2023-07-30T05:20:45;100070.56;;;27.97;50.31
31121;BME280;17770;45.966;13.632;2023-07-30T05:23:11;100084.66;;;27.98;49.83
31121;BME280;17770;45.966;13.632;2023-07-30T05:25:36;100088.28;;;27.97;49.96
31121;BME280;17770;45.966;13.632;2023-07-30T05:28:02;100089.28;;;27.96;50.02
31121;BME280;17770;45.966;13.632;2023-07-30T05:30:28;100100.06;;;27.94;49.85
31121;BME280;17770;45.966;13.632;2023-07-30T05:32:54;100104.53;;;27.94;49.81
31121;BME280;17770;45.966;13.632;2023-07-30T05:35:20;100104.53;;;27.94;50.05
31121;BME280;17770;45.966;13.632;2023-07-30T05:37:46;100109.84;;;27.94;50.01
31121;BME280;17770;45.966;13.632;2023-07-30T05:40:12;100111.63;;;27.93;50.05
31121;BME280;17770;45.966;13.632;2023-07-30T05:42:38;100123.25;;;27.92;50.11
31121;BME280;17770;45.966;13.632;2023-07-30T05:45:04;100111.00;;;27.91;50.00
31121;BME280;17770;45.966;13.632;2023-07-30T05:47:30;100110.16;;;27.91;50.17
31121;BME280;17770;45.966;13.632;2023-07-30T05:49:56;100102.19;;;27.91;50.04
31121;BME280;17770;45.966;13.632;2023-07-30T05:52:21;100108.34;;;27.91;49.89
31121;BME280;17770;45.966;13.632;2023-07-30T05:54:47;100123.41;;;27.91;49.92
31121;BME280;17770;45.966;13.632;2023-07-30T05:57:13;100121.72;;;27.90;49.95
31121;BME280;17770;45.966;13.632;2023-07-30T05:59:39;100119.22;;;27.88;49.98
31121;BME280;17770;45.966;13.632;2023-07-30T06:02:05;100106.81;;;27.89;50.17
31121;BME280;17770;45.966;13.632;2023-07-30T06:04:31;100110.47;;;27.88;50.03
31121;BME280;17770;45.966;13.632;2023-07-30T06:06:58;100127.16;;;27.88;50.07
31121;BME280;17770;45.966;13.632;2023-07-30T06:09:24;100130.81;;;27.87;50.02
31121;BME280;17770;45.966;13.632;2023-07-30T06:11:50;100130.81;;;27.87;50.01
31121;BME280;17770;45.966;13.632;2023-07-30T06:14:16;100137.94;;;27.87;50.07
31121;BME280;17770;45.966;13.632;2023-07-30T06:16:42;100146.06;;;27.85;49.99
31121;BME280;17770;45.966;13.632;2023-07-30T06:19:09;100149.56;;;27.86;49.86
31121;BME280;17770;45.966;13.632;2023-07-30T06:21:34;100147.91;;;27.85;50.24
31121;BME280;17770;45.966;13.632;2023-07-30T06:24:00;100149.56;;;27.86;50.38
31121;BME280;17770;45.966;13.632;2023-07-30T06:26:26;100154.00;;;27.85;49.96
31121;BME280;17770;45.966;13.632;2023-07-30T06:28:52;100155.00;;;27.84;50.27
31121;BME280;17770;45.966;13.632;2023-07-30T06:31:18;100151.53;;;27.84;50.18
31121;BME280;17770;45.966;13.632;2023-07-30T06:33:44;100151.53;;;27.84;50.33
31121;BME280;17770;45.966;13.632;2023-07-30T06:36:10;100148.88;;;27.84;50.07
31121;BME280;17770;45.966;13.632;2023-07-30T06:38:36;100148.03;;;27.83;49.91
31121;BME280;17770;45.966;13.632;2023-07-30T06:41:01;100148.19;;;27.82;50.36
31121;BME280;17770;45.966;13.632;2023-07-30T06:43:27;100145.53;;;27.82;50.14
31121;BME280;17770;45.966;13.632;2023-07-30T06:45:53;100145.53;;;27.82;50.53
31121;BME280;17770;45.966;13.632;2023-07-30T06:48:20;100146.38;;;27.82;50.31
31121;BME280;17770;45.966;13.632;2023-07-30T06:50:46;100147.38;;;27.81;50.22
31121;BME280;17770;45.966;13.632;2023-07-30T06:53:12;100153.50;;;27.82;50.06
31121;BME280;17770;45.966;13.632;2023-07-30T06:55:37;100155.19;;;27.83;50.03
31121;BME280;17770;45.966;13.632;2023-07-30T06:58:03;100156.16;;;27.82;50.09
31121;BME280;17770;45.966;13.632;2023-07-30T07:00:29;100156.81;;;27.84;49.78
31121;BME280;17770;45.966;13.632;2023-07-30T07:02:55;100152.53;;;27.83;49.85
31121;BME280;17770;45.966;13.632;2023-07-30T07:05:21;100159.47;;;27.84;50.00
31121;BME280;17770;45.966;13.632;2023-07-30T07:07:47;100154.19;;;27.84;50.19
31121;BME280;17770;45.966;13.632;2023-07-30T07:10:13;100158.50;;;27.85;50.20
31121;BME280;17770;45.966;13.632;2023-07-30T07:12:39;100162.97;;;27.84;49.94
31121;BME280;17770;45.966;13.632;2023-07-30T07:15:05;100169.91;;;27.85;50.34
31121;BME280;17770;45.966;13.632;2023-07-30T07:17:31;100163.81;;;27.85;49.94
31121;BME280;17770;45.966;13.632;2023-07-30T07:19:57;100170.75;;;27.86;49.90
31121;BME280;17770;45.966;13.632;2023-07-30T07:22:23;100168.94;;;27.86;49.99
31121;BME280;17770;45.966;13.632;2023-07-30T07:24:49;100168.09;;;27.86;49.98
31121;BME280;17770;45.966;13.632;2023-07-30T07:27:20;100168.94;;;27.86;49.99
31121;BME280;17770;45.966;13.632;2023-07-30T07:29:48;100165.47;;;27.86;50.08
31121;BME280;17770;45.966;13.632;2023-07-30T07:32:14;100175.06;;;27.87;50.04
31121;BME280;17770;45.966;13.632;2023-07-30T07:34:40;100173.97;;;27.89;50.07
31121;BME280;17770;45.966;13.632;2023-07-30T07:37:06;100173.09;;;27.89;49.85
31121;BME280;17770;45.966;13.632;2023-07-30T07:39:32;100174.78;;;27.90;50.05
31121;BME280;17770;45.966;13.632;2023-07-30T07:41:58;100175.59;;;27.90;50.27
31121;BME280;17770;45.966;13.632;2023-07-30T07:44:24;100185.25;;;27.91;49.96
31121;BME280;17770;45.966;13.632;2023-07-30T07:46:50;100190.38;;;27.93;49.87
31121;BME280;17770;45.966;13.632;2023-07-30T07:49:16;100197.34;;;27.94;50.15
31121;BME280;17770;45.966;13.632;2023-07-30T07:51:42;100204.28;;;27.95;49.88
31121;BME280;17770;45.966;13.632;2023-07-30T07:54:07;100193.69;;;27.95;49.96
31121;BME280;17770;45.966;13.632;2023-07-30T07:56:33;100197.19;;;27.95;50.23
31121;BME280;17770;45.966;13.632;2023-07-30T07:58:59;100191.72;;;27.97;50.13
31121;BME280;17770;45.966;13.632;2023-07-30T08:01:25;100192.56;;;27.97;49.92
31121;BME280;17770;45.966;13.632;2023-07-30T08:03:51;100190.56;;;27.99;50.02
31121;BME280;17770;45.966;13.632;2023-07-30T08:06:17;100201.03;;;28.01;50.14
31121;BME280;17770;45.966;13.632;2023-07-30T08:08:43;100198.38;;;28.01;50.09
31121;BME280;17770;45.966;13.632;2023-07-30T08:11:09;100201.84;;;28.01;50.40
31121;BME280;17770;45.966;13.632;2023-07-30T08:13:35;100207.28;;;28.00;50.58
31121;BME280;17770;45.966;13.632;2023-07-30T08:16:01;100200.34;;;27.99;50.55
31121;BME280;17770;45.966;13.632;2023-07-30T08:18:27;100211.63;;;28.01;50.96
31121;BME280;17770;45.966;13.632;2023-07-30T08:20:53;100209.78;;;28.01;50.69
31121;BME280;17770;45.966;13.632;2023-07-30T08:23:19;100213.28;;;28.02;50.75
31121;BME280;17770;45.966;13.632;2023-07-30T08:25:45;100207.81;;;28.03;50.47
31121;BME280;17770;45.966;13.632;2023-07-30T08:28:11;100206.84;;;28.04;50.35
31121;BME280;17770;45.966;13.632;2023-07-30T08:30:37;100204.03;;;28.06;50.77
31121;BME280;17770;45.966;13.632;2023-07-30T08:33:03;100202.03;;;28.08;50.33
31121;BME280;17770;45.966;13.632;2023-07-30T08:35:28;100211.66;;;28.09;50.35
31121;BME280;17770;45.966;13.632;2023-07-30T08:37:55;100212.50;;;28.09;50.38
31121;BME280;17770;45.966;13.632;2023-07-30T08:40:21;100215.97;;;28.10;50.59
31121;BME280;17770;45.966;13.632;2023-07-30T08:42:52;100208.84;;;28.10;50.34
31121;BME280;17770;45.966;13.632;2023-07-30T08:45:18;100216.78;;;28.10;50.35
31121;BME280;17770;45.966;13.632;2023-07-30T08:47:44;100221.09;;;28.11;50.71
31121;BME280;17770;45.966;13.632;2023-07-30T08:50:10;100217.47;;;28.12;50.73
31121;BME280;17770;45.966;13.632;2023-07-30T08:52:36;100222.63;;;28.14;50.62
31121;BME280;17770;45.966;13.632;2023-07-30T08:55:03;100213.66;;;28.15;50.31
31121;BME280;17770;45.966;13.632;2023-07-30T08:57:29;100211.84;;;28.15;50.46
31121;BME280;17770;45.966;13.632;2023-07-30T09:00:11;100217.81;;;28.17;50.24
31121;BME280;17770;45.966;13.632;2023-07-30T09:02:37;100222.97;;;28.19;50.34
31121;BME280;17770;45.966;13.632;2023-07-30T09:05:04;100221.97;;;28.20;50.51
31121;BME280;17770;45.966;13.632;2023-07-30T09:07:30;100218.34;;;28.21;50.49
31121;BME280;17770;45.966;13.632;2023-07-30T09:09:56;100210.38;;;28.21;50.40
31121;BME280;17770;45.966;13.632;2023-07-30T09:12:32;100219.97;;;28.22;50.69
31121;BME280;17770;45.966;13.632;2023-07-30T09:14:58;100218.63;;;28.18;50.36
31121;BME280;17770;45.966;13.632;2023-07-30T09:17:24;100209.22;;;28.24;50.46
31121;BME280;17770;45.966;13.632;2023-07-30T09:19:51;100202.75;;;28.26;50.16
31121;BME280;17770;45.966;13.632;2023-07-30T09:22:27;100206.06;;;28.28;50.24
31121;BME280;17770;45.966;13.632;2023-07-30T09:24:56;100204.25;;;28.29;50.32
31121;BME280;17770;45.966;13.632;2023-07-30T09:27:24;100211.88;;;28.32;50.15
31121;BME280;17770;45.966;13.632;2023-07-30T09:29:54;100206.56;;;28.32;50.16
31121;BME280;17770;45.966;13.632;2023-07-30T09:32:20;100207.25;;;28.34;50.02
31121;BME280;17770;45.966;13.632;2023-07-30T09:34:46;100206.91;;;28.37;50.01
31121;BME280;17770;45.966;13.632;2023-07-30T09:37:13;100202.44;;;28.37;50.31
31121;BME280;17770;45.966;13.632;2023-07-30T09:39:39;100207.59;;;28.39;50.09
31121;BME280;17770;45.966;13.632;2023-07-30T09:42:04;100198.63;;;28.40;50.36
31121;BME280;17770;45.966;13.632;2023-07-30T09:44:31;100200.97;;;28.43;50.04
31121;BME280;17770;45.966;13.632;2023-07-30T09:46:58;100191.00;;;28.45;50.21
31121;BME280;17770;45.966;13.632;2023-07-30T09:49:24;100193.50;;;28.46;49.97
31121;BME280;17770;45.966;13.632;2023-07-30T09:51:50;100189.88;;;28.47;50.04
31121;BME280;17770;45.966;13.632;2023-07-30T09:54:17;100191.38;;;28.50;49.85
31121;BME280;17770;45.966;13.632;2023-07-30T09:56:43;100180.59;;;28.51;49.91
31121;BME280;17770;45.966;13.632;2023-07-30T09:59:09;100180.47;;;28.53;50.18
31121;BME280;17770;45.966;13.632;2023-07-30T10:01:41;100181.94;;;28.55;49.58
31121;BME280;17770;45.966;13.632;2023-07-30T10:04:08;100178.28;;;28.56;50.11
31121;BME280;17770;45.966;13.632;2023-07-30T10:06:36;100185.09;;;28.59;49.91
31121;BME280;17770;45.966;13.632;2023-07-30T10:09:03;100180.47;;;28.61;49.78
31121;BME280;17770;45.966;13.632;2023-07-30T10:11:30;100182.97;;;28.62;49.60
31121;BME280;17770;45.966;13.632;2023-07-30T10:13:56;100186.28;;;28.64;49.44
31121;BME280;17770;45.966;13.632;2023-07-30T10:16:25;100179.97;;;28.65;49.64
31121;BME280;17770;45.966;13.632;2023-07-30T10:18:55;100182.44;;;28.67;49.41
31121;BME280;17770;45.966;13.632;2023-07-30T10:21:22;100188.44;;;28.69;49.31
31121;BME280;17770;45.966;13.632;2023-07-30T10:24:01;100183.13;;;28.69;49.77
31121;BME280;17770;45.966;13.632;2023-07-30T10:26:27;100178.47;;;28.71;49.67
31121;BME280;17770;45.966;13.632;2023-07-30T10:29:09;100176.63;;;28.71;49.82
31121;BME280;17770;45.966;13.632;2023-07-30T10:31:39;100167.69;;;28.72;49.47
31121;BME280;17770;45.966;13.632;2023-07-30T10:34:09;100166.53;;;28.75;49.81
31121;BME280;17770;45.966;13.632;2023-07-30T10:39:14;100166.00;;;28.79;49.55
31121;BME280;17770;45.966;13.632;2023-07-30T10:41:41;100169.50;;;28.80;49.48
31121;BME280;17770;45.966;13.632;2023-07-30T10:44:08;100162.22;;;28.82;49.35
31121;BME280;17770;45.966;13.632;2023-07-30T10:46:42;100160.22;;;28.84;49.22
31121;BME280;17770;45.966;13.632;2023-07-30T10:49:08;100156.56;;;28.85;49.36
31121;BME280;17770;45.966;13.632;2023-07-30T10:51:35;100150.25;;;28.86;49.75
31121;BME280;17770;45.966;13.632;2023-07-30T10:54:01;100158.06;;;28.87;49.35
31121;BME280;17770;45.966;13.632;2023-07-30T10:56:31;100157.06;;;28.88;49.17
31121;BME280;17770;45.966;13.632;2023-07-30T10:58:57;100156.88;;;28.90;49.82
31121;BME280;17770;45.966;13.632;2023-07-30T11:01:26;100147.91;;;28.91;49.74
31121;BME280;17770;45.966;13.632;2023-07-30T11:03:52;100150.44;;;28.92;50.24
31121;BME280;17770;45.966;13.632;2023-07-30T11:06:21;100144.94;;;28.94;50.08
31121;BME280;17770;45.966;13.632;2023-07-30T11:08:47;100151.56;;;28.98;50.12
31121;BME280;17770;45.966;13.632;2023-07-30T11:11:13;100145.28;;;28.99;49.73
31121;BME280;17770;45.966;13.632;2023-07-30T11:13:39;100143.25;;;29.01;50.36
31121;BME280;17770;45.966;13.632;2023-07-30T11:16:06;100145.75;;;29.02;50.39
31121;BME280;17770;45.966;13.632;2023-07-30T11:18:33;100148.09;;;29.05;50.30
31121;BME280;17770;45.966;13.632;2023-07-30T11:21:11;100146.94;;;29.08;49.78
31121;BME280;17770;45.966;13.632;2023-07-30T11:23:38;100148.59;;;29.09;50.05
31121;BME280;17770;45.966;13.632;2023-07-30T11:26:05;100141.13;;;29.12;49.57
31121;BME280;17770;45.966;13.632;2023-07-30T11:28:38;100145.28;;;29.15;49.81
31121;BME280;17770;45.966;13.632;2023-07-30T11:31:14;100139.97;;;29.15;49.70
31121;BME280;17770;45.966;13.632;2023-07-30T11:33:41;100134.47;;;29.16;50.06
31121;BME280;17770;45.966;13.632;2023-07-30T11:36:09;100133.28;;;29.19;50.60
31121;BME280;17770;45.966;13.632;2023-07-30T11:38:36;100140.13;;;29.21;50.51
31121;BME280;17770;45.966;13.632;2023-07-30T11:41:03;100138.13;;;29.23;50.86
31121;BME280;17770;45.966;13.632;2023-07-30T11:43:30;100143.09;;;29.26;50.58
31121;BME280;17770;45.966;13.632;2023-07-30T11:46:06;100135.97;;;29.27;50.83
31121;BME280;17770;45.966;13.632;2023-07-30T11:48:33;100143.41;;;29.31;50.45
31121;BME280;17770;45.966;13.632;2023-07-30T11:51:00;100147.53;;;29.34;50.46
31121;BME280;17770;45.966;13.632;2023-07-30T11:53:45;100150.88;;;29.36;51.07
31121;BME280;17770;45.966;13.632;2023-07-30T11:56:45;100141.75;;;29.38;51.34
31121;BME280;17770;45.966;13.632;2023-07-30T11:59:06;100135.25;;;29.41;51.21
31121;BME280;17770;45.966;13.632;2023-07-30T12:01:33;100127.94;;;29.43;51.12
31121;BME280;17770;45.966;13.632;2023-07-30T12:04:00;100135.72;;;29.45;50.72
31121;BME280;17770;45.966;13.632;2023-07-30T12:09:19;100125.41;;;29.50;52.06
31121;BME280;17770;45.966;13.632;2023-07-30T12:11:50;100121.56;;;29.52;52.19
31121;BME280;17770;45.966;13.632;2023-07-30T12:14:17;100110.75;;;29.54;51.81
31121;BME280;17770;45.966;13.632;2023-07-30T12:16:43;100115.09;;;29.55;51.44
31121;BME280;17770;45.966;13.632;2023-07-30T12:19:09;100113.28;;;29.55;52.17
31121;BME280;17770;45.966;13.632;2023-07-30T12:21:35;100110.09;;;29.60;51.64
31121;BME280;17770;45.966;13.632;2023-07-30T12:24:02;100101.94;;;29.61;51.67
31121;BME280;17770;45.966;13.632;2023-07-30T12:26:29;100108.72;;;29.64;51.78
31121;BME280;17770;45.966;13.632;2023-07-30T12:28:55;100112.91;;;29.66;52.05
31121;BME280;17770;45.966;13.632;2023-07-30T12:31:21;100100.28;;;29.68;52.08
31121;BME280;17770;45.966;13.632;2023-07-30T12:33:46;100105.06;;;29.73;52.53
31121;BME280;17770;45.966;13.632;2023-07-30T12:36:12;100098.72;;;29.74;52.68
31121;BME280;17770;45.966;13.632;2023-07-30T12:38:38;100102.91;;;29.76;52.64
31121;BME280;17770;45.966;13.632;2023-07-30T12:41:05;100097.88;;;29.81;52.04
31121;BME280;17770;45.966;13.632;2023-07-30T12:43:30;100095.22;;;29.81;53.03